Time;durP1;ratioP1;P1;durP2;ratioP2;P2;SDS_P1;SDS_P2;PMS_P1;PMS_P2;Temp;Humidity;BMP_temperature;BMP_pressure;BME280_temperature;BME280_humidity;BME280_pressure;Samples;Min_cycle;Max_cycle;Signal;HPM_P1;HPM_P2
2023/07/28 00:02:21;;;;;;;24.25;11.40;;;;;;;;;;5021763;28;20116;-76
2023/07/28 00:04:47;;;;;;;25.15;11.85;;;;;;;;;;5046672;28;20047;-77
2023/07/28 00:07:13;;;;;;;23.45;10.90;;;;;;;;;;5042894;28;20047;-76
2023/07/28 00:09:40;;;;;;;24.60;10.98;;;;;;;;;;5025712;28;20036;-76
2023/07/28 00:12:06;;;;;;;25.70;9.90;;;;;;;;;;5031329;28;20068;-76
2023/07/28 00:14:32;;;;;;;21.70;9.25;;;;;;;;;;5036764;28;20461;-78
2023/07/28 00:16:58;;;;;;;21.90;10.23;;;;;;;;;;5041794;28;20425;-78
2023/07/28 00:19:24;;;;;;;24.05;10.73;;;;;;;;;;5042247;28;20041;-77
2023/07/28 00:21:51;;;;;;;20.88;9.93;;;;;;;;;;5048477;28;20045;-77
2023/07/28 00:24:17;;;;;;;23.05;10.32;;;;;;;;;;5022941;28;20076;-77
2023/07/28 00:26:44;;;;;;;23.10;11.50;;;;;;;;;;5036060;28;20033;-76
2023/07/28 00:29:10;;;;;;;21.70;11.73;;;;;;;;;;5034200;28;20084;-76
2023/07/28 00:31:36;;;;;;;30.52;11.88;;;;;;;;;;5031214;28;20052;-76
2023/07/28 00:34:03;;;;;;;29.42;12.45;;;;;;;;;;5030412;28;20068;-78
2023/07/28 00:36:29;;;;;;;31.15;12.65;;;;;;;;;;5038207;28;20458;-76
2023/07/28 00:38:55;;;;;;;30.17;13.27;;;;;;;;;;5039256;28;20037;-76
2023/07/28 00:41:21;;;;;;;30.10;13.32;;;;;;;;;;5036735;28;20117;-76
2023/07/28 00:43:47;;;;;;;26.73;14.18;;;;;;;;;;5025914;28;20074;-76
2023/07/28 00:46:14;;;;;;;33.40;14.50;;;;;;;;;;5033444;28;20499;-76
2023/07/28 00:48:41;;;;;;;30.67;14.02;;;;;;;;;;4998853;28;20564;-76
2023/07/28 00:51:07;;;;;;;35.97;15.00;;;;;;;;;;5032381;28;20041;-76
2023/07/28 00:53:34;;;;;;;38.00;14.80;;;;;;;;;;5028536;28;20078;-76
2023/07/28 00:56:01;;;;;;;40.42;16.10;;;;;;;;;;5016810;28;20065;-75
2023/07/28 00:58:27;;;;;;;40.17;16.42;;;;;;;;;;5005116;28;20634;-76
2023/07/28 01:00:54;;;;;;;36.75;16.13;;;;;;;;;;5017038;28;20042;-76
2023/07/28 01:03:21;;;;;;;42.50;17.15;;;;;;;;;;5019519;28;20126;-76
2023/07/28 01:06:01;;;;;;;41.42;15.70;;;;;;;;;;5021745;28;20073;-76
2023/07/28 01:08:27;;;;;;;33.83;14.63;;;;;;;;;;5016127;28;20432;-77
2023/07/28 01:10:54;;;;;;;32.92;14.90;;;;;;;;;;5044465;28;20404;-75
2023/07/28 01:13:20;;;;;;;33.55;14.02;;;;;;;;;;5001049;28;20041;-74
2023/07/28 01:15:46;;;;;;;32.28;14.55;;;;;;;;;;5011094;28;20136;-75
2023/07/28 01:18:12;;;;;;;29.48;13.48;;;;;;;;;;5019868;28;20040;-76
2023/07/28 01:20:39;;;;;;;26.52;11.93;;;;;;;;;;5028986;28;20036;-75
2023/07/28 01:23:09;;;;;;;30.30;12.68;;;;;;;;;;5038668;28;20044;-76
2023/07/28 01:25:35;;;;;;;28.67;12.00;;;;;;;;;;5017991;28;20096;-76
2023/07/28 01:28:02;;;;;;;22.80;11.25;;;;;;;;;;5020912;28;20041;-76
2023/07/28 01:30:28;;;;;;;30.00;11.75;;;;;;;;;;5024355;28;20030;-76
2023/07/28 01:32:56;;;;;;;23.23;11.90;;;;;;;;;;5016568;28;20041;-76
2023/07/28 01:35:22;;;;;;;20.05;10.15;;;;;;;;;;5013215;28;20041;-77
2023/07/28 01:37:50;;;;;;;37.30;11.20;;;;;;;;;;5005793;28;20044;-76
2023/07/28 01:40:20;;;;;;;24.10;10.65;;;;;;;;;;5004618;28;20504;-76
2023/07/28 01:42:46;;;;;;;26.98;11.70;;;;;;;;;;5013997;28;20041;-77
2023/07/28 01:45:12;;;;;;;26.60;11.05;;;;;;;;;;5013345;28;20045;-76
2023/07/28 01:47:38;;;;;;;26.85;12.23;;;;;;;;;;5022364;28;20160;-77
2023/07/28 01:50:05;;;;;;;28.88;11.93;;;;;;;;;;5007943;28;20083;-76
2023/07/28 01:52:31;;;;;;;27.15;11.70;;;;;;;;;;5035739;28;20042;-76
2023/07/28 01:54:57;;;;;;;32.25;12.40;;;;;;;;;;5024244;28;20037;-76
2023/07/28 01:57:27;;;;;;;24.45;11.52;;;;;;;;;;5040319;28;20040;-76
2023/07/28 01:59:53;;;;;;;29.08;11.65;;;;;;;;;;5032741;28;20038;-76
2023/07/28 02:02:19;;;;;;;28.67;10.93;;;;;;;;;;5035510;28;20123;-76
2023/07/28 02:04:46;;;;;;;23.42;11.10;;;;;;;;;;5010386;28;20034;-76
2023/07/28 02:07:12;;;;;;;24.55;12.35;;;;;;;;;;5040895;28;20083;-76
2023/07/28 02:09:38;;;;;;;31.45;12.32;;;;;;;;;;5045740;28;20123;-75
2023/07/28 02:12:04;;;;;;;27.85;12.13;;;;;;;;;;5040030;28;20048;-75
2023/07/28 02:14:30;;;;;;;28.23;11.73;;;;;;;;;;5049408;28;20041;-75
2023/07/28 02:16:56;;;;;;;26.17;12.05;;;;;;;;;;5045783;28;20418;-75
2023/07/28 02:19:22;;;;;;;23.60;11.48;;;;;;;;;;5047183;28;20107;-76
2023/07/28 02:21:48;;;;;;;25.10;12.02;;;;;;;;;;5035290;28;20040;-75
2023/07/28 02:24:14;;;;;;;27.20;12.18;;;;;;;;;;5027405;28;20030;-76
2023/07/28 02:26:40;;;;;;;25.48;12.10;;;;;;;;;;5048768;28;20479;-76
2023/07/28 02:29:06;;;;;;;32.08;12.30;;;;;;;;;;5051027;28;20059;-76
2023/07/28 02:31:32;;;;;;;30.63;12.88;;;;;;;;;;5043173;28;20049;-76
2023/07/28 02:33:59;;;;;;;28.60;11.50;;;;;;;;;;5049827;28;20136;-76
2023/07/28 02:36:25;;;;;;;26.65;11.70;;;;;;;;;;5047817;28;20044;-75
2023/07/28 02:38:51;;;;;;;27.20;11.95;;;;;;;;;;5028037;28;20052;-75
2023/07/28 02:41:17;;;;;;;24.63;11.63;;;;;;;;;;5034234;28;20519;-76
2023/07/28 02:43:43;;;;;;;24.83;11.45;;;;;;;;;;5044244;28;20045;-75
2023/07/28 02:46:09;;;;;;;29.60;11.88;;;;;;;;;;5028625;28;20491;-76
2023/07/28 02:48:35;;;;;;;29.52;11.90;;;;;;;;;;5009287;28;20150;-77
2023/07/28 02:51:01;;;;;;;32.75;12.30;;;;;;;;;;5026925;28;20040;-75
2023/07/28 02:53:27;;;;;;;28.23;11.90;;;;;;;;;;5014381;28;20044;-74
2023/07/28 02:55:54;;;;;;;33.03;13.02;;;;;;;;;;5018029;28;20045;-75
2023/07/28 02:58:20;;;;;;;29.63;12.30;;;;;;;;;;5005324;28;20077;-74
2023/07/28 03:00:52;;;;;;;29.65;11.70;;;;;;;;;;5032347;28;20269;-74
2023/07/28 03:03:18;;;;;;;25.95;12.30;;;;;;;;;;5037327;28;20041;-75
2023/07/28 03:05:44;;;;;;;27.88;11.70;;;;;;;;;;5043462;28;20041;-75
2023/07/28 03:08:10;;;;;;;28.40;11.95;;;;;;;;;;5027971;28;20037;-75
2023/07/28 03:10:36;;;;;;;23.00;10.95;;;;;;;;;;5016334;28;20048;-76
2023/07/28 03:13:02;;;;;;;31.70;12.63;;;;;;;;;;5047884;28;20032;-76
2023/07/28 03:15:28;;;;;;;30.25;12.43;;;;;;;;;;5041731;28;20102;-76
2023/07/28 03:17:54;;;;;;;25.42;11.30;;;;;;;;;;5028981;28;20548;-76
2023/07/28 03:20:21;;;;;;;24.50;11.63;;;;;;;;;;5033675;28;20542;-75
2023/07/28 03:22:47;;;;;;;27.48;11.98;;;;;;;;;;5015919;28;20408;-76
2023/07/28 03:25:13;;;;;;;26.63;10.30;;;;;;;;;;5024791;28;20483;-75
2023/07/28 03:27:39;;;;;;;30.75;11.68;;;;;;;;;;5006256;28;20064;-75
2023/07/28 03:30:12;;;;;;;31.13;10.60;;;;;;;;;;5015862;28;20152;-75
2023/07/28 03:32:38;;;;;;;28.52;10.52;;;;;;;;;;5015463;28;20049;-73
2023/07/28 03:35:05;;;;;;;25.38;11.07;;;;;;;;;;5015526;28;20052;-77
2023/07/28 03:37:31;;;;;;;24.00;10.80;;;;;;;;;;5019494;28;20053;-75
2023/07/28 03:39:58;;;;;;;23.45;10.98;;;;;;;;;;5012759;28;20045;-75
2023/07/28 03:42:24;;;;;;;27.92;10.27;;;;;;;;;;5013503;28;20502;-75
2023/07/28 03:44:50;;;;;;;23.77;10.57;;;;;;;;;;4999329;28;20045;-75
2023/07/28 03:47:16;;;;;;;29.05;10.25;;;;;;;;;;5024200;28;20046;-75
2023/07/28 03:49:42;;;;;;;27.55;10.50;;;;;;;;;;5042427;28;20107;-76
2023/07/28 03:52:09;;;;;;;26.85;10.65;;;;;;;;;;5031540;28;20056;-77
2023/07/28 03:54:35;;;;;;;28.58;10.70;;;;;;;;;;5034083;28;20439;-75
2023/07/28 03:57:01;;;;;;;29.38;10.32;;;;;;;;;;5031501;28;20041;-74
2023/07/28 03:59:27;;;;;;;24.33;11.18;;;;;;;;;;5019460;28;20042;-75
2023/07/28 04:01:53;;;;;;;31.92;12.18;;;;;;;;;;5041252;28;20033;-75
2023/07/28 04:04:19;;;;;;;27.40;11.40;;;;;;;;;;5038894;28;20047;-76
2023/07/28 04:06:46;;;;;;;33.05;11.98;;;;;;;;;;5049322;28;20043;-75
2023/07/28 04:09:13;;;;;;;30.60;11.95;;;;;;;;;;5023051;28;20542;-73
2023/07/28 04:11:39;;;;;;;30.58;11.45;;;;;;;;;;5050245;28;20490;-73
2023/07/28 04:14:06;;;;;;;26.63;11.32;;;;;;;;;;5050839;28;20064;-74
2023/07/28 04:16:32;;;;;;;29.38;11.52;;;;;;;;;;5042035;28;20045;-74
2023/07/28 04:18:58;;;;;;;24.85;11.00;;;;;;;;;;5046667;28;20041;-73
2023/07/28 04:21:24;;;;;;;29.08;11.98;;;;;;;;;;5043534;28;20053;-76
2023/07/28 04:23:50;;;;;;;32.47;11.43;;;;;;;;;;5024738;28;20040;-74
2023/07/28 04:26:19;;;;;;;29.45;10.70;;;;;;;;;;5050484;28;20155;-76
2023/07/28 04:28:46;;;;;;;32.90;10.95;;;;;;;;;;5047721;28;20037;-75
2023/07/28 04:31:12;;;;;;;38.60;12.13;;;;;;;;;;5030670;28;20045;-75
2023/07/28 04:33:41;;;;;;;23.33;11.15;;;;;;;;;;5040583;28;20041;-74
2023/07/28 04:36:07;;;;;;;26.10;11.40;;;;;;;;;;5048007;28;20037;-75
2023/07/28 04:38:33;;;;;;;33.35;11.65;;;;;;;;;;5028169;28;20041;-74
2023/07/28 04:40:59;;;;;;;31.60;11.38;;;;;;;;;;5031200;28;20095;-74
2023/07/28 04:43:25;;;;;;;27.85;11.93;;;;;;;;;;5043461;28;20107;-74
2023/07/28 04:45:51;;;;;;;27.98;12.00;;;;;;;;;;5047084;28;20040;-72
2023/07/28 04:48:17;;;;;;;30.00;12.63;;;;;;;;;;5039102;28;20482;-75
2023/07/28 04:50:45;;;;;;;35.95;12.57;;;;;;;;;;5033685;28;20072;-75
2023/07/28 04:53:11;;;;;;;41.97;12.93;;;;;;;;;;5025181;28;20049;-74
2023/07/28 04:55:37;;;;;;;24.50;11.55;;;;;;;;;;5012392;28;20127;-74
2023/07/28 04:58:03;;;;;;;30.10;11.32;;;;;;;;;;5016388;28;20038;-74
2023/07/28 05:00:29;;;;;;;32.58;12.50;;;;;;;;;;5046341;28;20399;-74
2023/07/28 05:02:55;;;;;;;30.38;12.57;;;;;;;;;;5041114;28;20096;-74
2023/07/28 05:05:21;;;;;;;31.88;12.32;;;;;;;;;;5035400;28;20068;-75
2023/07/28 05:07:47;;;;;;;29.67;13.30;;;;;;;;;;5044611;28;20491;-75
2023/07/28 05:10:13;;;;;;;27.55;12.57;;;;;;;;;;5030939;28;20038;-79
2023/07/28 05:12:39;;;;;;;27.73;12.00;;;;;;;;;;5044213;28;20049;-74
2023/07/28 05:15:10;;;;;;;30.63;12.73;;;;;;;;;;5041715;28;20041;-75
2023/07/28 05:17:36;;;;;;;29.65;11.82;;;;;;;;;;5031165;28;20045;-74
2023/07/28 05:20:02;;;;;;;28.25;12.65;;;;;;;;;;5030690;28;20053;-74
2023/07/28 05:22:28;;;;;;;24.50;12.05;;;;;;;;;;5025856;28;20049;-73
2023/07/28 05:24:54;;;;;;;24.95;11.82;;;;;;;;;;5014952;28;20037;-73
2023/07/28 05:27:20;;;;;;;30.27;12.32;;;;;;;;;;5008610;28;20045;-72
2023/07/28 05:29:47;;;;;;;27.13;11.45;;;;;;;;;;5032893;28;20095;-72
2023/07/28 05:32:13;;;;;;;26.40;12.10;;;;;;;;;;5030509;28;20045;-73
2023/07/28 05:34:42;;;;;;;27.65;11.57;;;;;;;;;;5035994;28;20042;-74
2023/07/28 05:37:08;;;;;;;29.52;11.77;;;;;;;;;;5030362;28;20048;-73
2023/07/28 05:39:34;;;;;;;31.15;12.07;;;;;;;;;;5031253;28;20046;-73
2023/07/28 05:42:00;;;;;;;29.27;11.90;;;;;;;;;;5031657;28;20041;-73
2023/07/28 05:44:26;;;;;;;25.27;12.75;;;;;;;;;;5051366;28;20056;-74
2023/07/28 05:46:52;;;;;;;24.83;12.90;;;;;;;;;;5037201;28;20087;-73
2023/07/28 05:49:19;;;;;;;24.70;11.70;;;;;;;;;;5004955;28;20436;-74
2023/07/28 05:51:45;;;;;;;25.17;12.32;;;;;;;;;;5025532;28;20042;-74
2023/07/28 05:54:14;;;;;;;21.55;11.82;;;;;;;;;;5019543;28;20048;-75
2023/07/28 05:56:40;;;;;;;48.85;12.30;;;;;;;;;;5029510;28;20045;-74
2023/07/28 05:59:06;;;;;;;20.95;10.52;;;;;;;;;;5030849;28;20048;-75
2023/07/28 06:01:33;;;;;;;21.88;10.85;;;;;;;;;;5033016;28;20119;-73
2023/07/28 06:03:59;;;;;;;23.15;11.35;;;;;;;;;;5028632;28;20041;-73
2023/07/28 06:06:28;;;;;;;23.75;11.60;;;;;;;;;;5042004;28;20042;-74
2023/07/28 06:08:54;;;;;;;29.42;11.27;;;;;;;;;;5026226;28;20044;-73
2023/07/28 06:11:21;;;;;;;23.95;10.75;;;;;;;;;;5007346;28;20410;-72
2023/07/28 06:13:47;;;;;;;19.30;10.43;;;;;;;;;;5027755;28;20119;-73
2023/07/28 06:16:16;;;;;;;17.42;9.65;;;;;;;;;;5050148;28;20065;-75
2023/07/28 06:18:42;;;;;;;16.13;9.10;;;;;;;;;;5034330;28;20032;-75
2023/07/28 06:21:09;;;;;;;19.90;9.73;;;;;;;;;;5036285;28;20053;-73
2023/07/28 06:23:35;;;;;;;15.15;9.55;;;;;;;;;;5036518;28;20041;-74
2023/07/28 06:26:01;;;;;;;19.98;10.05;;;;;;;;;;5033796;28;20056;-75
2023/07/28 06:28:27;;;;;;;19.25;10.20;;;;;;;;;;5006482;28;20137;-75
2023/07/28 06:30:57;;;;;;;18.83;9.65;;;;;;;;;;5041553;28;20072;-74
2023/07/28 06:33:23;;;;;;;15.65;9.48;;;;;;;;;;5047981;28;20044;-75
2023/07/28 06:35:49;;;;;;;21.35;10.10;;;;;;;;;;5015658;28;20399;-75
2023/07/28 06:38:15;;;;;;;22.02;9.48;;;;;;;;;;5033236;28;20041;-75
2023/07/28 06:40:41;;;;;;;15.93;9.15;;;;;;;;;;5025213;28;20163;-75
2023/07/28 06:43:07;;;;;;;15.68;8.77;;;;;;;;;;5033553;28;20029;-74
2023/07/28 06:45:33;;;;;;;15.90;8.98;;;;;;;;;;5020887;28;20057;-75
2023/07/28 06:48:00;;;;;;;16.73;8.68;;;;;;;;;;5012549;28;20055;-74
2023/07/28 06:50:26;;;;;;;11.68;8.15;;;;;;;;;;5051294;28;20127;-74
2023/07/28 06:52:52;;;;;;;12.93;8.48;;;;;;;;;;5023011;28;20048;-75
2023/07/28 06:55:20;;;;;;;15.15;8.65;;;;;;;;;;5050675;28;20045;-74
2023/07/28 06:57:46;;;;;;;16.58;8.90;;;;;;;;;;5020745;28;20552;-74
2023/07/28 07:00:13;;;;;;;16.33;8.95;;;;;;;;;;5041312;28;20121;-74
2023/07/28 07:02:39;;;;;;;20.08;9.00;;;;;;;;;;5019119;28;20506;-74
2023/07/28 07:05:06;;;;;;;20.65;9.40;;;;;;;;;;5052365;28;20041;-78
2023/07/28 07:07:32;;;;;;;16.48;8.85;;;;;;;;;;5022386;28;20125;-74
2023/07/28 07:09:59;;;;;;;11.40;6.38;;;;;;;;;;5039893;28;20115;-75
2023/07/28 07:12:25;;;;;;;10.15;6.47;;;;;;;;;;5052784;28;20529;-74
2023/07/28 07:14:51;;;;;;;13.40;6.45;;;;;;;;;;5042425;28;20511;-75
2023/07/28 07:17:17;;;;;;;12.77;6.97;;;;;;;;;;5039044;28;20072;-75
2023/07/28 07:19:43;;;;;;;14.10;6.88;;;;;;;;;;5036728;28;20041;-72
2023/07/28 07:22:09;;;;;;;13.00;6.13;;;;;;;;;;5043013;28;20120;-72
2023/07/28 07:24:36;;;;;;;11.65;6.18;;;;;;;;;;5029729;28;20098;-73
2023/07/28 07:27:02;;;;;;;10.45;5.90;;;;;;;;;;5031880;28;20077;-74
2023/07/28 07:29:28;;;;;;;10.95;6.30;;;;;;;;;;5035152;28;20041;-71
2023/07/28 07:31:57;;;;;;;11.00;6.45;;;;;;;;;;5047194;28;20090;-73
2023/07/28 07:34:23;;;;;;;12.15;6.40;;;;;;;;;;5017746;28;20068;-72
2023/07/28 07:36:50;;;;;;;12.45;5.45;;;;;;;;;;5049105;28;20159;-75
2023/07/28 07:39:16;;;;;;;10.73;4.88;;;;;;;;;;5051816;28;20601;-72
2023/07/28 07:41:42;;;;;;;11.60;5.20;;;;;;;;;;5051591;28;20040;-78
2023/07/28 07:44:08;;;;;;;7.78;5.30;;;;;;;;;;5043113;28;20555;-75
2023/07/28 07:46:34;;;;;;;8.07;5.65;;;;;;;;;;5043766;28;20033;-75
2023/07/28 07:49:00;;;;;;;9.15;5.55;;;;;;;;;;5048040;28;20044;-74
2023/07/28 07:51:26;;;;;;;10.93;5.80;;;;;;;;;;5045177;28;20041;-74
2023/07/28 07:53:52;;;;;;;10.18;5.97;;;;;;;;;;5030634;28;20128;-74
2023/07/28 07:56:18;;;;;;;11.80;5.97;;;;;;;;;;5047058;28;20507;-76
2023/07/28 07:58:44;;;;;;;11.18;5.63;;;;;;;;;;5039186;28;20562;-76
2023/07/28 08:01:11;;;;;;;12.07;5.50;;;;;;;;;;5051327;28;20036;-74
2023/07/28 08:03:37;;;;;;;9.32;5.32;;;;;;;;;;5028664;28;20087;-75
2023/07/28 08:06:03;;;;;;;9.00;5.38;;;;;;;;;;5044960;28;20037;-76
2023/07/28 08:08:30;;;;;;;10.10;4.95;;;;;;;;;;5045440;28;20380;-74
2023/07/28 08:10:56;;;;;;;8.30;5.28;;;;;;;;;;5044538;28;20051;-75
2023/07/28 08:13:22;;;;;;;9.55;4.80;;;;;;;;;;5040608;28;20041;-75
2023/07/28 08:15:48;;;;;;;8.40;5.05;;;;;;;;;;5045629;28;20045;-75
2023/07/28 08:18:15;;;;;;;10.32;4.13;;;;;;;;;;5040861;28;20490;-75
2023/07/28 08:20:41;;;;;;;6.85;4.53;;;;;;;;;;5051192;28;20406;-75
2023/07/28 08:23:07;;;;;;;10.48;4.32;;;;;;;;;;5031329;28;20120;-76
2023/07/28 08:25:34;;;;;;;7.85;4.35;;;;;;;;;;5042486;28;20045;-75
2023/07/28 08:28:01;;;;;;;6.72;4.60;;;;;;;;;;5050632;28;20045;-77
2023/07/28 08:30:27;;;;;;;7.75;4.28;;;;;;;;;;5050371;28;20128;-76
2023/07/28 08:32:53;;;;;;;8.80;3.80;;;;;;;;;;5046553;28;20033;-74
2023/07/28 08:35:19;;;;;;;9.55;3.83;;;;;;;;;;5045672;28;20227;-75
2023/07/28 08:37:45;;;;;;;8.02;4.10;;;;;;;;;;5047976;28;20495;-72
2023/07/28 08:40:12;;;;;;;6.70;3.70;;;;;;;;;;5029977;28;20048;-75
2023/07/28 08:42:39;;;;;;;9.35;3.83;;;;;;;;;;5039934;28;20052;-75
2023/07/28 08:45:06;;;;;;;6.75;3.40;;;;;;;;;;5020974;28;20475;-75
2023/07/28 08:47:33;;;;;;;7.57;4.20;;;;;;;;;;5049920;28;20103;-75
2023/07/28 08:49:59;;;;;;;9.18;3.60;;;;;;;;;;5049029;28;20048;-77
2023/07/28 08:52:25;;;;;;;9.77;3.92;;;;;;;;;;5044613;28;20048;-77
2023/07/28 08:54:51;;;;;;;6.50;3.58;;;;;;;;;;5034518;28;20476;-76
2023/07/28 08:57:19;;;;;;;7.78;4.07;;;;;;;;;;5030560;28;20129;-76
2023/07/28 08:59:48;;;;;;;8.43;3.95;;;;;;;;;;5021637;28;20051;-76
2023/07/28 09:02:15;;;;;;;7.20;4.13;;;;;;;;;;5048485;28;20053;-76
2023/07/28 09:04:42;;;;;;;7.15;4.15;;;;;;;;;;5037822;28;20041;-65
2023/07/28 09:07:09;;;;;;;7.93;4.68;;;;;;;;;;5050233;28;20556;-68
2023/07/28 09:09:36;;;;;;;8.93;4.10;;;;;;;;;;5050121;28;20407;-68
2023/07/28 09:12:03;;;;;;;7.32;4.10;;;;;;;;;;5039784;28;20045;-70
2023/07/28 09:14:30;;;;;;;6.60;4.65;;;;;;;;;;5040973;28;20373;-70
2023/07/28 09:16:56;;;;;;;8.15;4.90;;;;;;;;;;5039999;28;20053;-75
2023/07/28 09:19:22;;;;;;;8.00;5.25;;;;;;;;;;5052879;28;20093;-73
2023/07/28 09:21:58;;;;;;;7.57;5.00;;;;;;;;;;5025642;28;20041;-71
2023/07/28 09:24:31;;;;;;;8.98;5.32;;;;;;;;;;5050914;28;20407;-71
2023/07/28 09:26:58;;;;;;;10.63;4.93;;;;;;;;;;5043278;28;20069;-70
2023/07/28 09:29:24;;;;;;;6.43;4.40;;;;;;;;;;5040676;28;20139;-70
2023/07/28 09:31:51;;;;;;;8.93;4.93;;;;;;;;;;5034473;28;20037;-71
2023/07/28 09:34:27;;;;;;;7.65;4.70;;;;;;;;;;5029586;28;20063;-70
2023/07/28 09:36:54;;;;;;;8.30;5.20;;;;;;;;;;5054265;28;20044;-69
2023/07/28 09:39:20;;;;;;;7.20;4.53;;;;;;;;;;5044590;28;20092;-69
2023/07/28 09:41:47;;;;;;;7.70;4.82;;;;;;;;;;5041616;28;20498;-72
2023/07/28 09:44:13;;;;;;;8.52;4.82;;;;;;;;;;5045043;28;20130;-72
2023/07/28 09:46:50;;;;;;;8.85;4.85;;;;;;;;;;5045940;28;20048;-71
2023/07/28 09:49:18;;;;;;;6.32;4.60;;;;;;;;;;5039038;28;20123;-72
2023/07/28 09:51:45;;;;;;;8.13;4.50;;;;;;;;;;5011596;28;20458;-71
2023/07/28 09:54:13;;;;;;;10.90;5.35;;;;;;;;;;5002530;28;20438;-71
2023/07/28 09:56:40;;;;;;;8.85;4.85;;;;;;;;;;5028382;28;20123;-71
2023/07/28 09:59:11;;;;;;;9.57;5.18;;;;;;;;;;5053763;28;20045;-72
2023/07/28 10:01:38;;;;;;;9.45;5.00;;;;;;;;;;5037036;28;20073;-72
2023/07/28 10:04:05;;;;;;;10.52;5.82;;;;;;;;;;5054861;28;20111;-72
2023/07/28 10:06:33;;;;;;;8.48;5.70;;;;;;;;;;5047972;28;20161;-72
2023/07/28 10:08:59;;;;;;;8.98;5.13;;;;;;;;;;5033074;28;20037;-72
2023/07/28 10:11:26;;;;;;;8.57;5.20;;;;;;;;;;5035645;28;20045;-72
2023/07/28 10:13:54;;;;;;;7.18;4.70;;;;;;;;;;5027592;28;20038;-73
2023/07/28 10:16:21;;;;;;;8.60;5.10;;;;;;;;;;5045360;28;20048;-71
2023/07/28 10:18:56;;;;;;;7.18;5.03;;;;;;;;;;5049855;28;20041;-73
2023/07/28 10:21:27;;;;;;;8.95;5.80;;;;;;;;;;5021982;28;20513;-72
2023/07/28 10:23:58;;;;;;;8.07;5.57;;;;;;;;;;5014103;28;20509;-71
2023/07/28 10:26:44;;;;;;;10.60;5.72;;;;;;;;;;5032148;28;20067;-71
2023/07/28 10:29:16;;;;;;;8.57;5.70;;;;;;;;;;5052086;28;20120;-71
2023/07/28 10:32:00;;;;;;;8.65;5.95;;;;;;;;;;5049833;28;20047;-72
2023/07/28 10:34:26;;;;;;;12.40;5.82;;;;;;;;;;5054091;28;20064;-73
2023/07/28 10:36:59;;;;;;;10.00;5.75;;;;;;;;;;5052627;28;20036;-74
2023/07/28 10:39:25;;;;;;;11.52;6.93;;;;;;;;;;5014536;28;20056;-74
2023/07/28 10:42:03;;;;;;;8.50;6.32;;;;;;;;;;5035466;28;20045;-75
2023/07/28 10:44:30;;;;;;;11.55;5.65;;;;;;;;;;5033814;28;20041;-74
2023/07/28 10:46:56;;;;;;;9.05;5.28;;;;;;;;;;5028670;28;20144;-74
2023/07/28 10:49:24;;;;;;;8.45;5.18;;;;;;;;;;5033513;28;20085;-74
2023/07/28 10:51:50;;;;;;;6.88;5.03;;;;;;;;;;5045584;28;20594;-73
2023/07/28 10:54:18;;;;;;;7.60;5.15;;;;;;;;;;5035428;28;20084;-74
2023/07/28 10:56:44;;;;;;;9.05;5.70;;;;;;;;;;5032315;28;20468;-72
2023/07/28 10:59:10;;;;;;;8.60;5.93;;;;;;;;;;5046466;28;20045;-74
2023/07/28 11:01:37;;;;;;;11.77;6.88;;;;;;;;;;5040948;28;20136;-73
2023/07/28 11:04:23;;;;;;;9.52;6.15;;;;;;;;;;5038865;28;20042;-75
2023/07/28 11:06:50;;;;;;;9.10;5.93;;;;;;;;;;5033918;28;20120;-74
2023/07/28 11:09:20;;;;;;;11.40;6.90;;;;;;;;;;5018084;28;20049;-75
2023/07/28 11:11:46;;;;;;;9.80;6.50;;;;;;;;;;5043522;28;20606;-72
2023/07/28 11:14:12;;;;;;;11.15;6.50;;;;;;;;;;5030143;28;20080;-74
2023/07/28 11:16:40;;;;;;;8.98;6.32;;;;;;;;;;5036748;28;20483;-72
2023/07/28 11:19:11;;;;;;;8.93;6.28;;;;;;;;;;5030535;28;20055;-73
2023/07/28 11:21:41;;;;;;;8.45;5.85;;;;;;;;;;5044399;28;20093;-73
2023/07/28 11:24:08;;;;;;;8.60;5.50;;;;;;;;;;5044158;28;20052;-72
2023/07/28 11:26:35;;;;;;;9.30;6.40;;;;;;;;;;5045184;28;20490;-74
2023/07/28 11:29:02;;;;;;;8.52;6.20;;;;;;;;;;5038160;28;20049;-74
2023/07/28 11:31:28;;;;;;;10.50;6.80;;;;;;;;;;5002186;28;20046;-72
2023/07/28 11:33:54;;;;;;;9.57;7.00;;;;;;;;;;5042914;28;20037;-73
2023/07/28 11:36:27;;;;;;;10.45;6.97;;;;;;;;;;5048196;28;20072;-73
2023/07/28 11:38:54;;;;;;;7.78;6.65;;;;;;;;;;5037952;28;20406;-74
2023/07/28 11:41:20;;;;;;;7.82;5.97;;;;;;;;;;5041359;28;20119;-74
2023/07/28 11:43:48;;;;;;;6.95;5.38;;;;;;;;;;5046791;28;20071;-75
2023/07/28 11:46:33;;;;;;;7.03;5.10;;;;;;;;;;5040260;28;20113;-73
2023/07/28 11:49:08;;;;;;;7.55;6.03;;;;;;;;;;5041153;28;20088;-75
2023/07/28 11:51:43;;;;;;;8.60;6.28;;;;;;;;;;5040083;28;20046;-72
2023/07/28 11:54:11;;;;;;;9.52;6.63;;;;;;;;;;5045167;28;20041;-74
2023/07/28 11:56:37;;;;;;;10.55;6.40;;;;;;;;;;5045173;28;20049;-74
2023/07/28 11:59:04;;;;;;;10.68;6.47;;;;;;;;;;5045750;28;20033;-74
2023/07/28 12:01:30;;;;;;;8.82;6.50;;;;;;;;;;5049307;28;20048;-74
2023/07/28 12:03:56;;;;;;;12.73;6.75;;;;;;;;;;5048809;28;20510;-74
2023/07/28 12:06:22;;;;;;;12.82;6.20;;;;;;;;;;5051322;28;20124;-73
2023/07/28 12:08:48;;;;;;;9.15;6.82;;;;;;;;;;5050323;28;20044;-72
2023/07/28 12:11:17;;;;;;;9.23;5.95;;;;;;;;;;5051358;28;20495;-73
2023/07/28 12:13:53;;;;;;;7.95;6.00;;;;;;;;;;5044214;28;20052;-73
2023/07/28 12:16:32;;;;;;;9.05;6.15;;;;;;;;;;5040859;28;20046;-74
2023/07/28 12:18:58;;;;;;;8.18;5.85;;;;;;;;;;5049267;28;20499;-73
2023/07/28 12:21:24;;;;;;;9.07;5.78;;;;;;;;;;5063413;28;20095;-74
2023/07/28 12:23:50;;;;;;;8.90;5.50;;;;;;;;;;5051084;28;20112;-74
2023/07/28 12:26:17;;;;;;;6.95;5.00;;;;;;;;;;5049977;28;20502;-73
2023/07/28 12:28:43;;;;;;;7.47;5.50;;;;;;;;;;5044319;28;20045;-74
2023/07/28 12:31:09;;;;;;;11.77;5.90;;;;;;;;;;5045328;28;20049;-74
2023/07/28 12:33:35;;;;;;;7.95;4.72;;;;;;;;;;5045071;28;20045;-73
2023/07/28 12:36:01;;;;;;;6.63;4.88;;;;;;;;;;5049191;28;20041;-74
2023/07/28 12:38:28;;;;;;;8.13;5.13;;;;;;;;;;5048026;28;20037;-73
2023/07/28 12:40:54;;;;;;;9.00;5.90;;;;;;;;;;5044828;28;20545;-74
2023/07/28 12:43:20;;;;;;;8.38;6.50;;;;;;;;;;5030293;28;20091;-74
2023/07/28 12:45:47;;;;;;;10.75;6.95;;;;;;;;;;5029078;28;20069;-74
2023/07/28 12:48:13;;;;;;;9.95;7.15;;;;;;;;;;5040977;28;20597;-73
2023/07/28 12:50:39;;;;;;;9.50;6.95;;;;;;;;;;5031109;28;20514;-73
2023/07/28 12:53:05;;;;;;;9.23;6.78;;;;;;;;;;5002025;28;20037;-74
2023/07/28 12:55:32;;;;;;;10.60;6.68;;;;;;;;;;5003789;28;20037;-73
2023/07/28 12:57:59;;;;;;;10.65;6.47;;;;;;;;;;4997808;28;20091;-74
2023/07/28 13:00:25;;;;;;;7.63;6.07;;;;;;;;;;5000138;28;20468;-74
2023/07/28 13:02:52;;;;;;;8.68;6.30;;;;;;;;;;5037234;28;20038;-73
2023/07/28 13:05:18;;;;;;;7.18;6.10;;;;;;;;;;5025212;28;20065;-75
2023/07/28 13:07:44;;;;;;;10.55;6.60;;;;;;;;;;5033931;28;20116;-73
2023/07/28 13:10:11;;;;;;;10.07;6.15;;;;;;;;;;5023298;28;20049;-72
2023/07/28 13:12:37;;;;;;;7.63;6.07;;;;;;;;;;5014566;28;20041;-73
2023/07/28 13:15:03;;;;;;;10.93;6.28;;;;;;;;;;5025780;28;20127;-73
2023/07/28 13:17:29;;;;;;;10.63;6.82;;;;;;;;;;5037197;28;20112;-73
2023/07/28 13:19:59;;;;;;;10.52;6.47;;;;;;;;;;5030039;28;20029;-72
2023/07/28 13:22:26;;;;;;;9.10;6.80;;;;;;;;;;5031023;28;20040;-72
2023/07/28 13:24:53;;;;;;;8.15;6.65;;;;;;;;;;5025018;28;20479;-71
2023/07/28 13:27:19;;;;;;;9.35;6.63;;;;;;;;;;5009566;28;20038;-73
2023/07/28 13:29:45;;;;;;;9.45;6.72;;;;;;;;;;5050907;28;20471;-77
2023/07/28 13:32:37;;;;;;;8.27;6.68;;;;;;;;;;5023438;28;20060;-74
2023/07/28 13:35:04;;;;;;;8.25;7.18;;;;;;;;;;5023716;28;20407;-75
2023/07/28 13:37:30;;;;;;;9.60;6.50;;;;;;;;;;5045816;28;20033;-73
2023/07/28 13:39:56;;;;;;;8.57;6.68;;;;;;;;;;5032431;28;20487;-74
2023/07/28 13:42:22;;;;;;;9.07;6.80;;;;;;;;;;5032663;28;20522;-73
2023/07/28 13:44:48;;;;;;;8.38;6.47;;;;;;;;;;5035560;28;20052;-73
2023/07/28 13:47:14;;;;;;;9.73;6.63;;;;;;;;;;5029562;28;20033;-73
2023/07/28 13:49:40;;;;;;;10.57;6.65;;;;;;;;;;5049762;28;20095;-74
2023/07/28 13:52:07;;;;;;;7.65;6.38;;;;;;;;;;5033014;28;20060;-76
2023/07/28 13:54:33;;;;;;;8.30;6.38;;;;;;;;;;5029718;28;20041;-75
2023/07/28 13:56:59;;;;;;;9.52;5.85;;;;;;;;;;5019685;28;20041;-73
2023/07/28 13:59:25;;;;;;;8.80;6.18;;;;;;;;;;5033827;28;20033;-75
2023/07/28 14:01:51;;;;;;;9.13;6.05;;;;;;;;;;5046317;28;20461;-73
2023/07/28 14:04:17;;;;;;;7.57;5.93;;;;;;;;;;5033242;28;20072;-75
2023/07/28 14:06:43;;;;;;;7.72;5.60;;;;;;;;;;5029070;28;20044;-75
2023/07/28 14:09:09;;;;;;;8.02;5.97;;;;;;;;;;5049380;28;20474;-74
2023/07/28 14:11:35;;;;;;;7.38;5.72;;;;;;;;;;5032525;28;20491;-76
2023/07/28 14:14:02;;;;;;;7.55;5.90;;;;;;;;;;5030674;28;20499;-74
2023/07/28 14:16:28;;;;;;;8.93;5.95;;;;;;;;;;5032407;28;20049;-75
2023/07/28 14:18:54;;;;;;;7.85;5.82;;;;;;;;;;5050145;28;20036;-72
2023/07/28 14:21:20;;;;;;;7.78;6.22;;;;;;;;;;5019142;28;20045;-74
2023/07/28 14:23:47;;;;;;;6.97;5.15;;;;;;;;;;5018580;28;20120;-74
2023/07/28 14:26:13;;;;;;;7.55;6.10;;;;;;;;;;5048477;28;20038;-74
2023/07/28 14:28:39;;;;;;;7.10;6.05;;;;;;;;;;5027956;28;20037;-74